createdAt,value
2022-10-14T00:01:20.953Z,17.98
2022-10-14T00:03:48.716Z,16.20
2022-10-14T00:06:20.993Z,13.52
2022-10-14T00:08:48.376Z,13.23
2022-10-14T00:11:21.184Z,10.70
2022-10-14T00:13:49.489Z,11.02
2022-10-14T00:16:26.361Z,11.65
2022-10-14T00:18:54.094Z,10.25
2022-10-14T00:21:22.389Z,12.10
2022-10-14T00:23:49.720Z,9.13
2022-10-14T00:26:18.661Z,10.23
2022-10-14T00:28:46.142Z,11.10
2022-10-14T00:31:13.474Z,13.02
2022-10-14T00:33:42.374Z,10.82
2022-10-14T00:36:14.984Z,10.98
2022-10-14T00:38:42.725Z,13.43
2022-10-14T00:41:20.101Z,18.25
2022-10-14T00:44:05.200Z,26.50
2022-10-14T00:46:38.776Z,18.38
2022-10-14T00:49:14.034Z,14.20
2022-10-14T00:51:44.668Z,11.23
2022-10-14T00:54:15.286Z,11.40
2022-10-14T00:59:12.688Z,9.40
2022-10-14T01:01:40.464Z,11.98
2022-10-14T01:04:07.837Z,12.30
2022-10-14T01:06:56.776Z,9.50
2022-10-14T01:09:39.346Z,11.75
2022-10-14T01:12:28.746Z,11.07
2022-10-14T01:15:31.111Z,9.57
2022-10-14T01:18:05.241Z,10.90
2022-10-14T01:20:44.420Z,10.38
2022-10-14T01:24:02.723Z,10.75
2022-10-14T01:27:08.527Z,11.13
2022-10-14T01:30:00.832Z,12.20
2022-10-14T01:32:49.906Z,10.05
2022-10-14T01:35:33.328Z,10.82
2022-10-14T01:38:16.234Z,10.95
2022-10-14T01:41:02.964Z,12.88
2022-10-14T01:43:32.987Z,19.58
2022-10-14T01:46:04.205Z,10.35
2022-10-14T01:48:37.842Z,12.43
2022-10-14T01:51:12.724Z,17.75
2022-10-14T01:53:44.321Z,11.13
2022-10-14T01:56:13.959Z,11.57
2022-10-14T01:58:42.391Z,12.02
2022-10-14T02:01:10.603Z,13.68
2022-10-14T02:03:43.527Z,11.88
2022-10-14T02:06:26.681Z,9.95
2022-10-14T02:09:05.991Z,15.57
2022-10-14T02:12:09.326Z,16.88
2022-10-14T02:15:00.410Z,16.67
2022-10-14T02:17:43.640Z,16.52
2022-10-14T02:20:46.177Z,19.85
2022-10-14T02:23:23.066Z,16.43
2022-10-14T02:25:51.227Z,17.58
2022-10-14T02:28:21.523Z,16.65
2022-10-14T02:31:00.301Z,16.77
2022-10-14T02:33:35.162Z,15.93
2022-10-14T02:36:04.919Z,17.25
2022-10-14T02:38:37.069Z,17.25
2022-10-14T02:41:08.780Z,15.60
2022-10-14T02:43:36.256Z,16.48
2022-10-14T02:46:06.814Z,21.85
2022-10-14T02:48:34.823Z,14.68
2022-10-14T02:51:02.137Z,18.85
2022-10-14T02:53:30.801Z,16.48
2022-10-14T02:55:59.249Z,17.33
2022-10-14T02:58:26.821Z,19.00
2022-10-14T03:00:57.487Z,17.10
2022-10-14T03:03:26.827Z,17.02
2022-10-14T03:05:55.422Z,16.90
2022-10-14T03:08:22.882Z,14.68
2022-10-14T03:10:50.889Z,16.35
2022-10-14T03:13:18.431Z,18.50
2022-10-14T03:15:52.263Z,19.02
2022-10-14T03:18:21.781Z,18.00
2022-10-14T03:20:51.438Z,19.70
2022-10-14T03:23:24.414Z,17.02
2022-10-14T03:25:54.265Z,16.93
2022-10-14T03:28:41.852Z,15.55
2022-10-14T03:31:22.891Z,15.13
2022-10-14T03:34:04.188Z,16.30
2022-10-14T03:36:32.333Z,15.50
2022-10-14T03:38:59.688Z,17.30
2022-10-14T03:41:45.079Z,16.85
2022-10-14T03:44:15.919Z,15.50
2022-10-14T03:46:55.858Z,16.58
2022-10-14T03:49:29.679Z,13.98
2022-10-14T03:51:59.911Z,12.50
2022-10-14T03:54:30.934Z,12.73
2022-10-14T03:56:58.293Z,12.43
2022-10-14T03:59:27.760Z,10.98
2022-10-14T04:01:56.464Z,11.80
2022-10-14T04:04:25.510Z,12.63
2022-10-14T04:06:52.824Z,13.30
2022-10-14T04:09:22.039Z,13.65
2022-10-14T04:11:50.035Z,12.35
2022-10-14T04:14:35.934Z,12.35
2022-10-14T04:17:03.686Z,15.07
2022-10-14T04:19:31.657Z,12.30
2022-10-14T04:22:00.277Z,11.60
2022-10-14T04:24:28.334Z,16.63
2022-10-14T04:26:59.144Z,12.68
2022-10-14T04:29:53.276Z,11.85
2022-10-14T04:32:27.642Z,10.20
2022-10-14T04:34:55.210Z,11.60
2022-10-14T04:37:26.159Z,13.25
2022-10-14T04:40:21.139Z,14.13
2022-10-14T04:42:48.688Z,11.95
2022-10-14T04:45:29.894Z,11.57
2022-10-14T04:48:02.058Z,9.30
2022-10-14T04:50:29.397Z,11.00
2022-10-14T04:53:17.510Z,12.55
2022-10-14T04:55:57.501Z,11.80
2022-10-14T04:58:24.969Z,11.40
2022-10-14T05:00:55.623Z,11.95
2022-10-14T05:03:30.687Z,10.35
2022-10-14T05:05:59.778Z,11.18
2022-10-14T05:08:27.316Z,10.13
2022-10-14T05:10:57.136Z,10.85
2022-10-14T05:13:36.953Z,14.33
2022-10-14T05:16:09.078Z,8.45
2022-10-14T05:18:36.564Z,10.57
2022-10-14T05:21:14.446Z,12.02
2022-10-14T05:24:01.940Z,11.93
2022-10-14T05:26:33.272Z,15.52
2022-10-14T05:29:05.717Z,13.40
2022-10-14T05:31:33.111Z,10.85
2022-10-14T05:34:07.636Z,8.85
2022-10-14T05:36:34.943Z,9.80
2022-10-14T05:39:02.667Z,11.38
2022-10-14T05:41:35.825Z,9.68
2022-10-14T05:44:04.329Z,10.20
2022-10-14T05:46:31.903Z,12.00
2022-10-14T05:49:01.483Z,10.57
2022-10-14T05:51:29.598Z,10.73
2022-10-14T05:54:11.182Z,11.27
2022-10-14T05:56:41.714Z,13.02
2022-10-14T05:59:12.992Z,10.95
2022-10-14T06:04:08.238Z,9.77
2022-10-14T06:06:35.639Z,11.15
2022-10-14T06:09:05.520Z,11.75
2022-10-14T06:11:36.714Z,10.18
2022-10-14T06:14:14.391Z,9.25
2022-10-14T06:16:42.226Z,11.75
2022-10-14T06:19:09.527Z,9.45
2022-10-14T06:21:59.647Z,10.80
2022-10-14T06:24:27.145Z,12.98
2022-10-14T06:26:54.398Z,11.68
2022-10-14T06:29:36.324Z,11.25
2022-10-14T06:32:13.394Z,10.32
2022-10-14T06:34:40.783Z,9.77
2022-10-14T06:37:07.991Z,10.25
2022-10-14T06:39:35.330Z,8.88
2022-10-14T06:42:03.148Z,9.35
2022-10-14T06:44:30.443Z,10.00
2022-10-14T06:46:57.751Z,9.63
2022-10-14T06:49:25.025Z,11.32
2022-10-14T06:51:52.228Z,10.48
2022-10-14T06:54:20.263Z,9.00
2022-10-14T06:56:47.648Z,9.77
2022-10-14T06:59:14.936Z,8.55
2022-10-14T07:01:42.459Z,8.23
2022-10-14T07:04:09.800Z,8.65
2022-10-14T07:06:38.379Z,8.60
2022-10-14T07:09:06.018Z,9.18
2022-10-14T07:11:33.345Z,8.93
2022-10-14T07:14:00.734Z,8.50
2022-10-14T07:16:28.496Z,19.63
2022-10-14T07:18:55.792Z,16.13
2022-10-14T07:21:23.186Z,10.55
2022-10-14T07:23:50.854Z,10.88
2022-10-14T07:26:18.820Z,19.25
2022-10-14T07:28:46.533Z,13.90
2022-10-14T07:31:14.274Z,18.58
2022-10-14T07:33:42.082Z,10.55
2022-10-14T07:36:12.398Z,9.85
2022-10-14T07:38:40.027Z,10.40
2022-10-14T07:41:17.011Z,8.63
2022-10-14T07:43:46.811Z,9.32
2022-10-14T07:46:15.253Z,12.68
2022-10-14T07:48:56.607Z,11.85
2022-10-14T07:51:25.620Z,8.85
2022-10-14T07:53:53.399Z,9.85
2022-10-14T07:56:22.615Z,9.90
2022-10-14T07:58:50.433Z,11.35
2022-10-14T08:01:18.986Z,11.70
2022-10-14T08:03:47.891Z,10.98
2022-10-14T08:06:15.829Z,11.30
2022-10-14T08:08:44.196Z,12.20
2022-10-14T08:11:17.070Z,11.18
2022-10-14T08:13:46.305Z,12.45
2022-10-14T08:16:35.112Z,11.10
2022-10-14T08:19:10.927Z,11.60
2022-10-14T08:21:41.908Z,11.52
2022-10-14T08:24:09.799Z,14.30
2022-10-14T08:26:49.102Z,13.05
2022-10-14T08:29:16.737Z,11.35
2022-10-14T08:31:44.050Z,11.18
2022-10-14T08:34:11.748Z,13.30
2022-10-14T08:36:39.020Z,13.52
2022-10-14T08:39:07.218Z,14.05
2022-10-14T08:42:13.628Z,13.57
2022-10-14T08:44:43.705Z,12.32
2022-10-14T08:47:16.711Z,13.18
2022-10-14T08:50:07.564Z,11.05
2022-10-14T08:52:59.312Z,13.20
2022-10-14T08:55:48.340Z,12.10
2022-10-14T09:00:55.051Z,15.32
2022-10-14T09:03:27.285Z,12.82
2022-10-14T09:06:01.366Z,8.93
2022-10-14T09:08:47.276Z,11.55
2022-10-14T09:11:20.511Z,13.80
2022-10-14T09:13:51.707Z,9.13
2022-10-14T09:16:27.853Z,14.77
2022-10-14T09:18:59.684Z,10.70
2022-10-14T09:21:52.170Z,10.50
2022-10-14T09:24:41.981Z,10.93
2022-10-14T09:27:22.146Z,10.15
2022-10-14T09:32:34.290Z,11.48
2022-10-14T09:35:02.800Z,10.98
2022-10-14T09:37:35.109Z,11.77
2022-10-14T09:40:08.014Z,10.15
2022-10-14T09:42:57.554Z,9.60
2022-10-14T09:45:47.712Z,10.15
2022-10-14T09:50:54.374Z,8.90
2022-10-14T09:53:45.663Z,11.05
2022-10-14T09:56:13.600Z,12.13
2022-10-14T09:59:43.542Z,14.68
2022-10-14T10:02:24.200Z,12.25
2022-10-14T10:04:54.999Z,12.30
2022-10-14T10:09:58.219Z,11.50
2022-10-14T10:16:26.392Z,10.60
2022-10-14T10:18:55.791Z,11.32
2022-10-14T10:21:31.103Z,10.85
2022-10-14T10:24:01.118Z,8.75
2022-10-14T10:26:36.788Z,10.55
2022-10-14T10:29:08.069Z,9.25
2022-10-14T10:31:54.872Z,9.23
2022-10-14T10:38:14.012Z,8.32
2022-10-14T10:41:07.295Z,9.23
2022-10-14T10:43:37.742Z,11.55
2022-10-14T10:54:54.307Z,7.25
2022-10-14T10:57:46.231Z,9.13
2022-10-14T11:00:28.912Z,9.35
2022-10-14T11:03:25.613Z,9.25
2022-10-14T11:06:07.499Z,9.40
2022-10-14T11:09:11.423Z,9.20
2022-10-14T11:12:03.656Z,6.32
2022-10-14T11:22:39.118Z,8.05
2022-10-14T11:25:46.722Z,7.43
2022-10-14T11:36:43.233Z,9.32
2022-10-14T11:40:01.424Z,7.90
2022-10-14T11:42:52.122Z,11.20
2022-10-14T11:45:59.033Z,8.77
2022-10-14T11:49:15.891Z,9.32
2022-10-14T11:56:29.941Z,7.55
2022-10-14T11:59:08.848Z,8.48
2022-10-14T12:01:46.450Z,7.45
2022-10-14T12:04:31.658Z,8.23
2022-10-14T12:07:08.732Z,7.80
2022-10-14T12:09:44.455Z,9.55
2022-10-14T12:12:19.128Z,8.30
2022-10-14T12:14:55.518Z,8.50
2022-10-14T12:17:42.695Z,11.10
2022-10-14T12:20:31.206Z,10.88
2022-10-14T12:23:01.485Z,10.77
2022-10-14T12:25:45.464Z,6.97
2022-10-14T12:28:14.508Z,7.57
2022-10-14T12:30:45.549Z,8.45
2022-10-14T12:33:22.401Z,7.63
2022-10-14T12:36:06.914Z,9.13
2022-10-14T12:38:36.250Z,7.57
2022-10-14T12:41:43.875Z,8.90
2022-10-14T12:44:16.040Z,8.55
2022-10-14T12:46:45.276Z,7.20
2022-10-14T12:49:38.709Z,8.93
2022-10-14T12:52:08.942Z,8.88
2022-10-14T12:57:30.363Z,12.73
2022-10-14T13:00:01.779Z,7.85
2022-10-14T13:02:35.280Z,8.38
2022-10-14T13:05:08.766Z,8.18
2022-10-14T13:07:46.717Z,7.97
2022-10-14T13:10:46.441Z,7.97
2022-10-14T13:13:42.405Z,16.50
2022-10-14T13:16:25.906Z,35.05
2022-10-14T13:18:54.554Z,16.50
2022-10-14T13:21:33.436Z,18.98
2022-10-14T13:24:13.183Z,20.13
2022-10-14T13:26:56.827Z,10.45
2022-10-14T13:29:33.666Z,7.95
2022-10-14T13:32:31.205Z,7.68
2022-10-14T13:35:14.270Z,6.97
2022-10-14T13:37:54.566Z,7.70
2022-10-14T13:43:33.822Z,7.25
2022-10-14T13:46:22.381Z,8.10
2022-10-14T13:48:58.968Z,8.52
2022-10-14T13:51:53.901Z,12.20
2022-10-14T13:54:24.483Z,14.10
2022-10-14T13:57:20.152Z,8.90
2022-10-14T14:02:44.386Z,8.20
2022-10-14T14:05:22.331Z,7.63
2022-10-14T14:11:03.824Z,9.43
2022-10-14T14:13:49.829Z,7.70
2022-10-14T14:16:21.942Z,8.52
2022-10-14T14:19:07.424Z,7.78
2022-10-14T14:21:36.153Z,8.13
2022-10-14T14:24:22.364Z,7.65
2022-10-14T14:26:55.010Z,6.47
2022-10-14T14:29:28.772Z,7.47
2022-10-14T14:32:06.749Z,9.50
2022-10-14T14:34:36.509Z,6.78
2022-10-14T14:40:20.419Z,8.55
2022-10-14T14:42:52.490Z,8.90
2022-10-14T14:45:34.493Z,7.10
2022-10-14T14:48:05.281Z,6.90
2022-10-14T14:50:43.217Z,7.28
2022-10-14T14:53:31.598Z,6.90
2022-10-14T14:56:01.971Z,6.13
2022-10-14T14:58:47.293Z,10.88
2022-10-14T15:01:24.970Z,7.13
2022-10-14T15:04:12.156Z,8.70
2022-10-14T15:07:17.448Z,9.43
2022-10-14T15:09:56.207Z,8.45
2022-10-14T15:12:27.551Z,10.25
2022-10-14T15:14:59.654Z,7.90
2022-10-14T15:17:39.997Z,11.00
2022-10-14T15:20:30.644Z,9.85
2022-10-14T15:22:58.863Z,7.35
2022-10-14T15:25:33.034Z,8.98
2022-10-14T15:28:03.129Z,10.35
2022-10-14T15:30:41.585Z,9.65
2022-10-14T15:33:22.592Z,11.15
2022-10-14T15:36:02.740Z,10.55
2022-10-14T15:41:05.229Z,10.05
2022-10-14T15:43:34.019Z,10.52
2022-10-14T15:46:20.282Z,10.05
2022-10-14T15:48:52.625Z,10.15
2022-10-14T15:51:23.845Z,9.95
2022-10-14T15:53:52.145Z,10.18
2022-10-14T15:56:21.458Z,8.75
2022-10-14T15:58:49.408Z,12.10
2022-10-14T16:01:20.646Z,12.73
2022-10-14T16:03:52.464Z,12.60
2022-10-14T16:06:22.851Z,10.70
2022-10-14T16:11:28.100Z,11.27
2022-10-14T16:14:01.696Z,12.55
2022-10-14T16:16:37.172Z,11.80
2022-10-14T16:19:09.696Z,12.55
2022-10-14T16:21:38.756Z,11.20
2022-10-14T16:24:07.601Z,11.75
2022-10-14T16:26:35.191Z,10.65
2022-10-14T16:29:03.644Z,12.15
2022-10-14T16:31:31.886Z,12.85
2022-10-14T16:34:02.441Z,10.85
2022-10-14T16:36:31.753Z,13.60
2022-10-14T16:39:02.088Z,14.13
2022-10-14T16:41:31.316Z,12.60
2022-10-14T16:43:59.222Z,14.32
2022-10-14T16:46:46.551Z,11.70
2022-10-14T16:49:14.539Z,12.23
2022-10-14T16:51:45.286Z,12.52
2022-10-14T16:54:12.617Z,11.02
2022-10-14T16:56:52.827Z,13.48
2022-10-14T16:59:24.689Z,14.30
2022-10-14T17:01:52.570Z,9.82
2022-10-14T17:04:20.812Z,9.85
2022-10-14T17:06:54.123Z,13.05
2022-10-14T17:11:55.078Z,10.30
2022-10-14T17:14:24.272Z,11.32
2022-10-14T17:16:54.743Z,14.45
2022-10-14T17:21:51.748Z,14.13
2022-10-14T17:24:19.073Z,15.30
2022-10-14T17:26:46.663Z,12.27
2022-10-14T17:29:14.056Z,11.60
2022-10-14T17:31:41.862Z,13.30
2022-10-14T17:34:09.996Z,10.30
2022-10-14T17:36:37.324Z,10.50
2022-10-14T17:39:06.223Z,11.73
2022-10-14T17:41:34.673Z,10.77
2022-10-14T17:44:03.190Z,11.40
2022-10-14T17:46:31.642Z,12.90
2022-10-14T17:49:01.200Z,11.27
2022-10-14T17:51:30.424Z,13.93
2022-10-14T17:54:01.616Z,12.40
2022-10-14T17:56:33.154Z,11.15
2022-10-14T17:59:04.806Z,10.05
2022-10-14T18:01:37.672Z,10.38
2022-10-14T18:04:17.898Z,13.60
2022-10-14T18:06:46.460Z,13.32
2022-10-14T18:09:14.103Z,12.15
2022-10-14T18:17:00.122Z,15.07
2022-10-14T18:19:28.150Z,13.80
2022-10-14T18:21:55.886Z,11.27
2022-10-14T18:24:26.084Z,9.93
2022-10-14T18:26:55.230Z,11.52
2022-10-14T18:29:25.513Z,10.90
2022-10-14T18:34:28.723Z,11.25
2022-10-14T18:36:56.129Z,12.55
2022-10-14T18:39:23.551Z,11.45
2022-10-14T18:41:53.479Z,14.85
2022-10-14T18:44:25.056Z,9.13
2022-10-14T18:46:53.577Z,9.32
2022-10-14T18:49:21.074Z,11.73
2022-10-14T18:51:48.481Z,11.05
2022-10-14T18:54:20.986Z,18.25
2022-10-14T18:56:48.424Z,11.68
2022-10-14T18:59:21.757Z,11.55
2022-10-14T19:01:53.976Z,15.77
2022-10-14T19:04:24.252Z,11.40
2022-10-14T19:06:51.976Z,13.07
2022-10-14T19:09:21.718Z,12.95
2022-10-14T19:11:52.958Z,12.45
2022-10-14T19:14:22.607Z,10.93
2022-10-14T19:16:50.050Z,10.70
2022-10-14T19:19:20.174Z,12.63
2022-10-14T19:21:54.604Z,10.68
2022-10-14T19:24:22.207Z,11.65
2022-10-14T19:26:50.335Z,12.68
2022-10-14T19:29:18.060Z,9.70
2022-10-14T19:31:45.981Z,10.60
2022-10-14T19:34:15.467Z,13.05
2022-10-14T19:36:44.407Z,12.88
2022-10-14T19:39:15.049Z,10.93
2022-10-14T19:41:46.763Z,13.98
2022-10-14T19:44:15.734Z,20.92
2022-10-14T19:46:44.313Z,13.90
2022-10-14T19:49:13.681Z,13.05
2022-10-14T19:51:41.256Z,13.15
2022-10-14T19:54:11.784Z,11.80
2022-10-14T19:56:39.680Z,14.50
2022-10-14T19:59:06.974Z,11.82
2022-10-14T20:01:34.450Z,11.48
2022-10-14T20:04:03.114Z,14.32
2022-10-14T20:06:34.472Z,12.93
2022-10-14T20:09:02.729Z,14.45
2022-10-14T20:11:31.265Z,13.45
2022-10-14T20:13:59.535Z,11.70
2022-10-14T20:16:27.591Z,13.07
2022-10-14T20:18:56.157Z,14.13
2022-10-14T20:21:24.197Z,15.43
2022-10-14T20:23:52.226Z,14.20
2022-10-14T20:26:21.252Z,14.63
2022-10-14T20:28:50.326Z,13.32
2022-10-14T20:31:22.595Z,15.55
2022-10-14T20:33:50.202Z,13.32
2022-10-14T20:36:20.267Z,13.27
2022-10-14T20:38:48.548Z,16.13
2022-10-14T20:41:21.303Z,14.50
2022-10-14T20:44:04.227Z,14.25
2022-10-14T20:46:33.125Z,13.85
2022-10-14T20:49:01.431Z,9.95
2022-10-14T20:51:29.582Z,10.23
2022-10-14T20:54:02.695Z,13.80
2022-10-14T20:56:33.998Z,12.10
2022-10-14T20:59:07.533Z,13.17
2022-10-14T21:01:37.006Z,14.75
2022-10-14T21:04:08.545Z,10.80
2022-10-14T21:06:36.730Z,10.70
2022-10-14T21:09:04.582Z,11.23
2022-10-14T21:11:32.685Z,14.40
2022-10-14T21:14:01.770Z,15.50
2022-10-14T21:16:32.603Z,10.18
2022-10-14T21:19:06.680Z,10.25
2022-10-14T21:21:40.001Z,10.93
2022-10-14T21:24:09.053Z,9.18
2022-10-14T21:26:36.441Z,10.68
2022-10-14T21:29:05.102Z,12.15
2022-10-14T21:31:33.557Z,11.25
2022-10-14T21:34:06.228Z,11.38
2022-10-14T21:36:37.730Z,13.75
2022-10-14T21:39:10.195Z,14.23
2022-10-14T21:41:38.310Z,16.13
2022-10-14T21:44:06.713Z,12.23
2022-10-14T21:46:35.331Z,10.63
2022-10-14T21:49:03.841Z,11.90
2022-10-14T21:51:33.038Z,12.55
2022-10-14T21:54:01.787Z,14.35
2022-10-14T21:56:31.575Z,17.42
2022-10-14T21:59:01.966Z,10.10
2022-10-14T22:01:31.543Z,12.32
2022-10-14T22:04:04.695Z,11.80
2022-10-14T22:06:35.201Z,11.63
2022-10-14T22:09:06.190Z,12.70
2022-10-14T22:11:37.036Z,10.48
2022-10-14T22:14:07.181Z,20.23
2022-10-14T22:16:36.009Z,11.00
2022-10-14T22:19:05.308Z,12.02
2022-10-14T22:21:35.288Z,14.13
2022-10-14T22:24:03.758Z,11.93
2022-10-14T22:26:32.882Z,16.35
2022-10-14T22:29:07.396Z,10.40
2022-10-14T22:31:35.598Z,12.43
2022-10-14T22:34:05.563Z,14.02
2022-10-14T22:36:35.031Z,12.52
2022-10-14T22:39:12.959Z,10.77
2022-10-14T22:41:40.433Z,11.27
2022-10-14T22:44:09.267Z,15.45
2022-10-14T22:46:38.699Z,11.38
2022-10-14T22:49:06.442Z,10.20
2022-10-14T22:51:42.925Z,9.77
2022-10-14T22:54:10.881Z,12.68
2022-10-14T22:56:39.123Z,11.63
2022-10-14T22:59:09.041Z,14.00
2022-10-14T23:01:36.859Z,11.32
2022-10-14T23:04:04.919Z,12.32
2022-10-14T23:06:33.249Z,10.45
2022-10-14T23:09:02.374Z,9.57
2022-10-14T23:11:31.371Z,12.95
2022-10-14T23:14:01.471Z,12.20
2022-10-14T23:16:32.157Z,12.20
2022-10-14T23:18:59.830Z,12.43
2022-10-14T23:21:30.056Z,14.15
2022-10-14T23:24:00.511Z,17.27
2022-10-14T23:26:34.661Z,16.48
2022-10-14T23:29:07.591Z,14.25
2022-10-14T23:31:36.634Z,11.40
2022-10-14T23:34:11.804Z,10.65
2022-10-14T23:36:39.611Z,13.23
2022-10-14T23:39:07.119Z,10.68
2022-10-14T23:41:35.075Z,12.57
2022-10-14T23:44:02.723Z,10.55
2022-10-14T23:46:30.080Z,10.88
2022-10-14T23:49:07.357Z,15.48
2022-10-14T23:51:41.819Z,12.68
2022-10-14T23:54:09.220Z,15.05
2022-10-14T23:56:36.870Z,13.02
2022-10-14T23:59:04.295Z,19.90
